Aviation Digital Data Service (ADDS)

Output produced by TAFs form (1158 UTC 25 July 2016)
found at http://aviationweather.gov/adds/tafs/
 
KPUB 251120Z 2512/2612 VRB05KT P6SM FEW040 SCT140 BKN200 
     FM251800 13008KT P6SM FEW110 
     FM252200 14010KT P6SM VCTS SCT080CB BKN140 
     FM260500 VRB05KT P6SM FEW070 SCT110 BKN140